createdAt,value
2018-12-09T00:52:42.887Z,75.70
2018-12-09T00:55:13.715Z,75.40
2018-12-09T00:57:45.181Z,73.60
2018-12-09T01:00:17.276Z,72.20
2018-12-09T01:02:48.274Z,73.10
2018-12-09T01:05:20.593Z,72.00
2018-12-09T01:07:52.051Z,71.20
2018-12-09T01:10:24.580Z,70.70
2018-12-09T01:12:55.806Z,68.00
2018-12-09T01:15:26.932Z,68.90
2018-12-09T01:17:59.423Z,68.10
2018-12-09T01:20:30.220Z,67.80
2018-12-09T01:23:01.861Z,68.10
2018-12-09T01:25:36.063Z,68.00
2018-12-09T01:28:06.582Z,67.10
2018-12-09T01:34:02.714Z,67.10
2018-12-09T01:36:41.782Z,65.60
2018-12-09T01:39:42.605Z,65.70
2018-12-09T01:42:20.154Z,64.70
2018-12-09T01:45:00.762Z,64.90
2018-12-09T01:47:40.081Z,64.40
2018-12-09T01:50:11.632Z,63.60
2018-12-09T01:52:45.152Z,63.60
2018-12-09T01:55:16.511Z,63.20
2018-12-09T01:57:47.339Z,61.30
2018-12-09T02:00:18.309Z,62.20
2018-12-09T02:02:49.722Z,58.20
2018-12-09T02:05:20.945Z,58.80
2018-12-09T02:07:52.497Z,58.80
2018-12-09T02:10:23.268Z,59.80
2018-12-09T02:12:55.953Z,60.10
2018-12-09T02:15:29.290Z,60.00
2018-12-09T02:18:11.106Z,60.70
2018-12-09T02:52:20.773Z,81.80
2018-12-09T02:54:52.130Z,80.20
2018-12-09T02:57:23.315Z,79.80
2018-12-09T02:59:54.233Z,81.70
2018-12-09T03:02:25.768Z,81.60
2018-12-09T03:04:57.790Z,81.80
2018-12-09T03:07:29.304Z,82.70
2018-12-09T03:10:00.082Z,82.50
2018-12-09T03:12:30.576Z,86.20
2018-12-09T03:15:01.783Z,89.80
2018-12-09T03:17:34.647Z,91.30
2018-12-09T03:20:05.911Z,91.30
2018-12-09T03:22:36.417Z,90.60
2018-12-09T03:25:08.289Z,88.10
2018-12-09T03:27:39.238Z,85.90
2018-12-09T03:30:13.955Z,84.00
2018-12-09T03:32:44.915Z,82.10
2018-12-09T03:35:15.363Z,79.30
2018-12-09T03:37:46.249Z,76.20
2018-12-09T03:40:17.056Z,77.50
2018-12-09T03:42:48.142Z,78.40
2018-12-09T03:45:19.311Z,80.20
2018-12-09T03:47:50.349Z,81.40
2018-12-09T03:50:21.882Z,77.20
2018-12-09T03:52:53.018Z,77.40
2018-12-09T03:55:24.237Z,75.60
2018-12-09T03:57:55.110Z,77.00
2018-12-09T04:00:27.403Z,76.80
2018-12-09T04:02:58.432Z,80.10
2018-12-09T04:05:29.267Z,75.90
2018-12-09T04:08:00.609Z,73.50
2018-12-09T04:10:31.473Z,72.10
2018-12-09T04:13:03.252Z,72.70
2018-12-09T04:15:39.268Z,72.70
2018-12-09T04:21:04.177Z,75.00
2018-12-09T04:23:35.636Z,74.90
2018-12-09T04:41:57.920Z,82.80
2018-12-09T04:47:40.539Z,84.00
2018-12-09T04:50:15.553Z,83.10
2018-12-09T04:52:47.317Z,85.40
2018-12-09T04:55:22.628Z,84.00
2018-12-09T04:57:53.796Z,82.60
2018-12-09T05:00:48.442Z,81.70
2018-12-09T05:03:23.116Z,83.10
2018-12-09T05:05:54.687Z,83.70
2018-12-09T05:08:26.245Z,83.60
2018-12-09T05:10:57.788Z,86.10
2018-12-09T05:13:30.788Z,85.40
2018-12-09T05:16:01.671Z,87.20
2018-12-09T05:18:32.644Z,87.80
2018-12-09T05:21:06.268Z,89.40
2018-12-09T05:23:37.158Z,90.40
2018-12-09T05:26:07.766Z,90.10
2018-12-09T05:28:38.564Z,90.10
2018-12-09T05:31:09.370Z,90.10
2018-12-09T05:33:40.933Z,89.30
2018-12-09T05:36:12.344Z,83.20
2018-12-09T05:38:43.340Z,84.90
2018-12-09T05:41:14.156Z,82.30
2018-12-09T05:43:47.859Z,76.70
2018-12-09T05:46:18.770Z,72.70
2018-12-09T05:48:49.821Z,74.20
2018-12-09T05:51:21.195Z,74.10
2018-12-09T05:53:51.601Z,72.10
2018-12-09T05:56:22.038Z,72.40
2018-12-09T05:58:53.092Z,70.70
2018-12-09T06:01:23.587Z,69.40
2018-12-09T06:03:54.638Z,69.60
2018-12-09T06:06:25.233Z,67.30
2018-12-09T06:08:56.492Z,67.60
2018-12-09T06:11:27.049Z,69.10
2018-12-09T06:13:58.219Z,69.60
2018-12-09T06:16:28.945Z,68.50
2018-12-09T06:19:06.204Z,68.40
2018-12-09T06:21:37.738Z,68.00
2018-12-09T06:24:08.453Z,66.10
2018-12-09T06:26:39.404Z,67.00
2018-12-09T06:29:10.588Z,67.40
2018-12-09T06:31:41.648Z,65.50
2018-12-09T06:34:12.460Z,65.80
2018-12-09T06:36:43.095Z,66.70
2018-12-09T06:39:14.673Z,66.00
2018-12-09T06:41:45.482Z,65.80
2018-12-09T06:44:16.315Z,66.60
2018-12-09T06:46:48.101Z,65.30
2018-12-09T06:49:19.737Z,66.10
2018-12-09T06:51:50.670Z,65.50
2018-12-09T06:54:22.737Z,68.00
2018-12-09T06:56:55.624Z,66.60
2018-12-09T06:59:29.628Z,65.00
2018-12-09T07:02:04.324Z,64.60
2018-12-09T07:04:37.244Z,64.30
2018-12-09T07:07:08.649Z,63.20
2018-12-09T07:09:41.635Z,63.20
2018-12-09T07:12:16.742Z,63.20
2018-12-09T07:14:48.575Z,63.30
2018-12-09T07:17:21.502Z,62.10
2018-12-09T07:19:55.367Z,63.30
2018-12-09T07:25:36.764Z,63.20
2018-12-09T07:28:10.342Z,63.10
2018-12-09T07:30:51.713Z,61.20
2018-12-09T07:33:25.311Z,61.50
2018-12-09T07:35:55.791Z,62.20
2018-12-09T07:38:29.629Z,60.40
2018-12-09T07:41:00.964Z,61.00
2018-12-09T07:43:32.212Z,60.10
2018-12-09T07:46:03.386Z,59.90
2018-12-09T07:48:46.141Z,59.60
2018-12-09T07:51:17.143Z,59.60
2018-12-09T07:54:16.112Z,59.80
2018-12-09T09:42:55.994Z,67.00
2018-12-09T09:45:26.604Z,68.00
2018-12-09T09:48:00.987Z,69.90
2018-12-09T09:50:33.007Z,71.10
2018-12-09T09:53:20.450Z,72.50
2018-12-09T09:55:54.047Z,73.60
2018-12-09T09:58:31.534Z,73.80
2018-12-09T10:01:05.252Z,74.10
2018-12-09T10:03:38.108Z,74.80
2018-12-09T10:06:13.373Z,73.90
2018-12-09T10:18:13.611Z,74.60
2018-12-09T10:20:51.457Z,75.90
2018-12-09T10:23:30.834Z,75.90
2018-12-09T10:26:09.617Z,77.30
2018-12-09T10:28:46.289Z,77.00
2018-12-09T10:31:16.848Z,74.20
2018-12-09T10:33:49.525Z,74.50
2018-12-09T10:36:20.139Z,76.60
2018-12-09T10:38:54.999Z,79.40
2018-12-09T10:41:26.035Z,76.70
2018-12-09T10:43:57.464Z,77.20
2018-12-09T10:46:28.488Z,78.80
2018-12-09T10:52:07.438Z,81.80
2018-12-09T11:01:34.594Z,82.10
2018-12-09T11:04:13.255Z,82.40
2018-12-09T11:06:49.719Z,80.30
2018-12-09T11:09:26.142Z,79.70
2018-12-09T11:11:58.380Z,79.00
2018-12-09T11:14:29.125Z,79.30
2018-12-09T11:16:59.790Z,79.00
2018-12-09T11:19:30.563Z,79.20
2018-12-09T11:22:01.090Z,79.40
2018-12-09T11:24:40.346Z,80.20
2018-12-09T11:27:13.712Z,79.70
2018-12-09T11:49:40.090Z,82.00
2018-12-09T11:52:10.778Z,81.60
2018-12-09T11:57:40.599Z,82.70
2018-12-09T12:00:30.791Z,83.30
2018-12-09T12:03:10.498Z,84.00
2018-12-09T12:05:41.033Z,84.40
2018-12-09T12:08:11.706Z,83.90
2018-12-09T12:10:49.775Z,84.70
2018-12-09T12:13:20.504Z,85.40
2018-12-09T12:15:50.889Z,86.70
2018-12-09T12:18:29.785Z,86.50
2018-12-09T12:21:00.595Z,86.50
2018-12-09T12:23:31.302Z,87.10
2018-12-09T12:26:09.080Z,88.20
2018-12-09T12:29:47.151Z,87.90
2018-12-09T12:32:20.547Z,87.50
2018-12-09T12:34:51.224Z,87.10
2018-12-09T12:37:29.744Z,88.50
2018-12-09T12:40:01.213Z,88.40
2018-12-09T12:42:38.609Z,88.30
2018-12-09T12:45:10.182Z,87.60
2018-12-09T13:44:53.767Z,85.10
2018-12-09T14:04:07.603Z,82.50
2018-12-09T14:06:38.340Z,84.60
2018-12-09T14:09:09.611Z,84.50
2018-12-09T14:14:15.783Z,85.30
2018-12-09T14:17:11.159Z,86.00
2018-12-09T14:19:41.752Z,85.70
2018-12-09T14:22:16.160Z,88.00
2018-12-09T14:24:47.697Z,87.90
2018-12-09T14:27:21.259Z,87.30
2018-12-09T14:29:53.923Z,87.60
2018-12-09T14:32:26.357Z,87.00
2018-12-09T14:34:59.461Z,87.50
2018-12-09T14:37:30.817Z,88.50
2018-12-09T14:40:10.791Z,88.90
2018-12-09T14:42:51.192Z,88.90
2018-12-09T14:45:23.694Z,88.80
2018-12-09T14:47:54.227Z,88.50
2018-12-09T14:50:30.285Z,89.20
2018-12-09T14:53:05.301Z,89.20
2018-12-09T14:55:35.842Z,88.30
2018-12-09T14:58:07.486Z,88.60
2018-12-09T15:03:41.758Z,89.60
2018-12-09T15:06:35.877Z,90.00
2018-12-09T15:09:10.697Z,90.00
2018-12-09T15:11:48.421Z,90.00
2018-12-09T15:30:44.857Z,92.40
2018-12-09T15:33:15.848Z,92.80
2018-12-09T15:35:46.765Z,93.10
2018-12-09T15:38:17.615Z,92.70
2018-12-09T15:40:48.956Z,92.70
2018-12-09T15:43:22.958Z,92.60
2018-12-09T15:45:54.012Z,92.70
2018-12-09T15:48:24.919Z,92.50
2018-12-09T15:50:56.009Z,92.80
2018-12-09T15:53:26.709Z,91.90
2018-12-09T15:55:57.518Z,92.10
2018-12-09T15:58:28.462Z,91.60
2018-12-09T16:00:59.284Z,91.90
2018-12-09T16:03:30.232Z,92.20
2018-12-09T16:06:01.157Z,92.10
2018-12-09T16:08:31.915Z,92.50
2018-12-09T16:11:03.155Z,91.90
2018-12-09T16:13:35.765Z,91.80
2018-12-09T16:16:07.006Z,91.60
2018-12-09T16:18:38.483Z,91.90
2018-12-09T16:21:10.510Z,91.90
2018-12-09T16:23:43.380Z,92.30
2018-12-09T16:26:14.216Z,92.50
2018-12-09T16:28:46.402Z,92.80
2018-12-09T16:31:18.333Z,92.60
2018-12-09T16:33:57.657Z,93.10
2018-12-09T16:36:30.061Z,93.50
2018-12-09T16:39:01.716Z,91.90
2018-12-09T16:41:37.967Z,91.90
2018-12-09T16:44:18.278Z,91.90
2018-12-09T16:46:49.715Z,91.80
2018-12-09T16:49:20.736Z,91.90
2018-12-09T16:51:51.907Z,91.10
2018-12-09T16:54:24.963Z,87.80
2018-12-09T17:00:07.179Z,89.40
2018-12-09T17:05:48.826Z,89.60
2018-12-09T17:08:24.581Z,86.60
2018-12-09T17:13:41.917Z,87.40
2018-12-09T17:16:17.058Z,87.40
2018-12-09T17:18:48.236Z,86.10
2018-12-09T17:21:19.290Z,86.50
2018-12-09T17:23:51.942Z,86.60
2018-12-09T17:26:23.248Z,85.80
2018-12-09T17:28:55.064Z,85.40
2018-12-09T17:31:26.185Z,85.50
2018-12-09T17:34:05.043Z,85.00
2018-12-09T17:36:36.629Z,87.00
2018-12-09T17:39:09.175Z,88.80
2018-12-09T17:41:43.883Z,89.60
2018-12-09T17:44:15.067Z,90.00
2018-12-09T17:46:47.085Z,88.10
2018-12-09T17:49:17.950Z,90.00
2018-12-09T17:51:52.254Z,89.00
2018-12-09T17:54:25.100Z,87.80
2018-12-09T17:56:55.966Z,90.00
2018-12-09T17:59:30.831Z,89.40
2018-12-09T18:02:01.793Z,88.70
2018-12-09T18:04:32.890Z,90.20
2018-12-09T18:07:07.575Z,90.00
2018-12-09T18:09:38.419Z,89.20
2018-12-09T18:12:10.720Z,90.00
2018-12-09T18:14:42.696Z,89.30
2018-12-09T18:17:13.512Z,88.80
2018-12-09T18:19:44.323Z,88.40
2018-12-09T18:22:15.263Z,90.00
2018-12-09T18:24:48.355Z,90.50
2018-12-09T18:27:19.378Z,88.80
2018-12-09T18:29:56.509Z,90.20
2018-12-09T18:32:27.578Z,88.80
2018-12-09T18:35:01.519Z,89.60
2018-12-09T18:37:38.952Z,86.20
2018-12-09T18:40:10.547Z,85.60
2018-12-09T18:42:43.618Z,84.50
2018-12-09T18:45:22.091Z,81.60
2018-12-09T18:48:00.178Z,84.20
2018-12-09T18:50:31.795Z,84.20
2018-12-09T18:53:02.698Z,82.80
2018-12-09T18:55:34.147Z,81.50
2018-12-09T18:58:05.762Z,83.50
2018-12-09T19:00:38.118Z,83.70
2018-12-09T19:03:09.748Z,84.60
2018-12-09T19:05:41.214Z,84.90
2018-12-09T19:08:11.878Z,83.10
2018-12-09T19:10:42.507Z,84.30
2018-12-09T19:13:13.216Z,85.80
2018-12-09T19:15:43.955Z,82.10
2018-12-09T19:18:15.675Z,83.40
2018-12-09T19:20:47.659Z,83.00
2018-12-09T19:23:18.254Z,83.90
2018-12-09T19:25:49.130Z,83.40
2018-12-09T19:28:20.411Z,84.30
2018-12-09T19:30:53.350Z,83.30
2018-12-09T19:33:24.317Z,82.40
2018-12-09T19:35:55.272Z,81.00
2018-12-09T19:38:26.634Z,81.40
2018-12-09T19:40:58.570Z,82.60
2018-12-09T19:43:29.659Z,81.30
2018-12-09T19:46:00.493Z,80.90
2018-12-09T19:48:31.412Z,80.90
2018-12-09T19:51:02.035Z,81.50
2018-12-09T19:53:32.718Z,81.10
2018-12-09T19:56:04.445Z,81.30
2018-12-09T19:58:35.255Z,80.80
2018-12-09T20:01:06.653Z,80.80
2018-12-09T20:03:37.130Z,80.20
2018-12-09T20:06:07.847Z,80.00
2018-12-09T20:08:38.497Z,79.00
2018-12-09T20:11:09.088Z,80.70
2018-12-09T20:13:40.167Z,80.80
2018-12-09T20:16:11.823Z,76.30
2018-12-09T20:18:42.559Z,76.70
2018-12-09T20:21:13.546Z,76.90
2018-12-09T20:23:44.243Z,77.40
2018-12-09T20:26:14.975Z,77.20
2018-12-09T20:28:45.826Z,76.40
2018-12-09T20:31:16.368Z,76.20
2018-12-09T20:33:47.545Z,77.50
2018-12-09T20:36:18.156Z,75.70
2018-12-09T20:38:48.770Z,76.10
2018-12-09T20:41:19.654Z,75.20
2018-12-09T20:43:50.566Z,75.90
2018-12-09T20:46:21.132Z,76.30
2018-12-09T20:48:52.429Z,76.20
2018-12-09T20:51:28.182Z,76.40
2018-12-09T20:53:59.242Z,76.30
2018-12-09T20:56:30.442Z,74.80
2018-12-09T20:59:02.743Z,73.90
2018-12-09T21:01:33.509Z,74.50
2018-12-09T21:04:04.779Z,75.40
2018-12-09T21:06:36.021Z,73.30
2018-12-09T21:09:07.987Z,72.30
2018-12-09T21:11:39.364Z,72.50
2018-12-09T21:14:11.491Z,72.20
2018-12-09T21:16:42.705Z,73.60
2018-12-09T21:19:13.771Z,73.00
2018-12-09T21:21:46.022Z,72.20
2018-12-09T21:24:25.724Z,72.90
2018-12-09T21:26:53.467Z,74.50
2018-12-09T21:29:24.989Z,72.90
2018-12-09T21:31:55.841Z,74.00
2018-12-09T21:34:27.116Z,75.10
2018-12-09T21:36:59.272Z,76.00
2018-12-09T21:39:30.204Z,76.20
2018-12-09T21:42:01.224Z,75.40
2018-12-09T21:44:33.064Z,74.60
2018-12-09T21:47:04.896Z,74.80
2018-12-09T21:49:35.700Z,75.60
2018-12-09T21:52:07.111Z,74.60
2018-12-09T21:54:37.978Z,74.40
2018-12-09T22:13:12.180Z,73.80
2018-12-09T22:15:43.808Z,74.80
2018-12-09T22:18:15.511Z,72.70
2018-12-09T22:20:46.562Z,72.50
2018-12-09T22:23:18.158Z,72.20
2018-12-09T22:25:49.368Z,73.10
2018-12-09T22:28:37.398Z,72.30
2018-12-09T22:31:11.446Z,72.60
2018-12-09T22:33:55.453Z,72.00
2018-12-09T22:36:28.424Z,71.50
2018-12-09T22:38:59.303Z,71.40
2018-12-09T22:41:31.893Z,71.50
2018-12-09T22:44:11.121Z,72.10
2018-12-09T22:46:42.628Z,72.00
2018-12-09T22:49:16.146Z,71.40
2018-12-09T22:51:47.936Z,72.00
2018-12-09T22:54:19.012Z,71.50
2018-12-09T22:56:50.824Z,71.50
2018-12-09T22:59:23.422Z,70.90
2018-12-09T23:02:00.267Z,71.40
2018-12-09T23:04:30.797Z,70.80
2018-12-09T23:07:07.009Z,69.50
2018-12-09T23:09:37.593Z,68.70
2018-12-09T23:12:09.285Z,68.40
2018-12-09T23:14:40.251Z,68.80
2018-12-09T23:17:12.584Z,68.30
2018-12-09T23:19:43.259Z,67.10
2018-12-09T23:22:14.057Z,66.80
2018-12-09T23:24:44.839Z,67.40
2018-12-09T23:30:03.187Z,68.60
2018-12-09T23:32:33.909Z,66.80
2018-12-09T23:35:06.441Z,67.90
2018-12-09T23:37:37.142Z,67.50
2018-12-09T23:40:08.799Z,66.80
2018-12-09T23:42:40.469Z,66.70
2018-12-09T23:45:12.225Z,67.20
2018-12-09T23:47:44.542Z,67.10
2018-12-09T23:50:16.887Z,67.50
2018-12-09T23:52:49.125Z,67.10
2018-12-09T23:55:20.610Z,67.90
2018-12-09T23:57:52.548Z,67.70
